sensor_id;sensor_type;location;lat;lon;timestamp;temperature;humidity
2973;DHT22;1496;51.404;7.232;2022-12-29T00:01:59;9.30;99.90
2973;DHT22;1496;51.404;7.232;2022-12-29T00:04:25;9.40;99.90
2973;DHT22;1496;51.404;7.232;2022-12-29T00:06:53;9.30;99.90
2973;DHT22;1496;51.404;7.232;2022-12-29T00:09:20;9.30;99.90
2973;DHT22;1496;51.404;7.232;2022-12-29T00:11:47;9.30;99.90
2973;DHT22;1496;51.404;7.232;2022-12-29T00:14:14;9.40;99.90
2973;DHT22;1496;51.404;7.232;2022-12-29T00:17:00;9.40;99.90
2973;DHT22;1496;51.404;7.232;2022-12-29T00:19:27;9.40;99.90
2973;DHT22;1496;51.404;7.232;2022-12-29T00:22:13;9.40;99.90
2973;DHT22;1496;51.404;7.232;2022-12-29T00:24:58;9.40;99.90
2973;DHT22;1496;51.404;7.232;2022-12-29T00:27:32;9.50;99.90
2973;DHT22;1496;51.404;7.232;2022-12-29T00:30:21;9.40;99.90
2973;DHT22;1496;51.404;7.232;2022-12-29T00:33:17;9.40;99.90
2973;DHT22;1496;51.404;7.232;2022-12-29T00:36:05;9.40;99.90
2973;DHT22;1496;51.404;7.232;2022-12-29T00:38:35;9.30;99.90
2973;DHT22;1496;51.404;7.232;2022-12-29T00:41:21;9.40;99.90
2973;DHT22;1496;51.404;7.232;2022-12-29T00:44:07;9.40;99.90
2973;DHT22;1496;51.404;7.232;2022-12-29T00:46:37;9.40;99.90
2973;DHT22;1496;51.404;7.232;2022-12-29T00:49:05;9.50;99.90
2973;DHT22;1496;51.404;7.232;2022-12-29T00:51:51;9.50;99.90
2973;DHT22;1496;51.404;7.232;2022-12-29T00:54:18;9.60;99.90
2973;DHT22;1496;51.404;7.232;2022-12-29T00:56:48;9.50;99.90
2973;DHT22;1496;51.404;7.232;2022-12-29T00:59:17;9.60;99.90
2973;DHT22;1496;51.404;7.232;2022-12-29T01:01:47;9.60;99.90
2973;DHT22;1496;51.404;7.232;2022-12-29T01:04:14;9.60;99.90
2973;DHT22;1496;51.404;7.232;2022-12-29T01:06:41;9.60;99.90
2973;DHT22;1496;51.404;7.232;2022-12-29T01:09:08;9.50;99.90
2973;DHT22;1496;51.404;7.232;2022-12-29T01:11:58;9.50;99.90
2973;DHT22;1496;51.404;7.232;2022-12-29T01:14:26;9.50;99.90
2973;DHT22;1496;51.404;7.232;2022-12-29T01:16:54;9.50;99.90
2973;DHT22;1496;51.404;7.232;2022-12-29T01:19:20;9.50;99.90
2973;DHT22;1496;51.404;7.232;2022-12-29T01:21:48;9.60;99.90
2973;DHT22;1496;51.404;7.232;2022-12-29T01:24:17;9.60;99.90
2973;DHT22;1496;51.404;7.232;2022-12-29T01:26:46;9.70;99.90
2973;DHT22;1496;51.404;7.232;2022-12-29T01:29:17;9.70;99.90
2973;DHT22;1496;51.404;7.232;2022-12-29T01:31:48;9.70;99.90
2973;DHT22;1496;51.404;7.232;2022-12-29T01:34:17;9.70;99.90
2973;DHT22;1496;51.404;7.232;2022-12-29T01:36:44;9.80;99.90
2973;DHT22;1496;51.404;7.232;2022-12-29T01:39:12;9.80;99.90
2973;DHT22;1496;51.404;7.232;2022-12-29T01:41:38;9.80;99.90
2973;DHT22;1496;51.404;7.232;2022-12-29T01:47:49;9.90;99.90
2973;DHT22;1496;51.404;7.232;2022-12-29T01:50:39;9.90;99.90
2973;DHT22;1496;51.404;7.232;2022-12-29T01:53:16;9.90;99.90
2973;DHT22;1496;51.404;7.232;2022-12-29T01:55:49;9.80;99.90
2973;DHT22;1496;51.404;7.232;2022-12-29T01:58:20;9.90;99.90
2973;DHT22;1496;51.404;7.232;2022-12-29T02:00:50;9.90;99.90
2973;DHT22;1496;51.404;7.232;2022-12-29T02:03:19;9.90;99.90
2973;DHT22;1496;51.404;7.232;2022-12-29T02:05:57;9.90;99.90
2973;DHT22;1496;51.404;7.232;2022-12-29T02:08:28;9.90;99.90
2973;DHT22;1496;51.404;7.232;2022-12-29T02:10:55;9.90;99.90
2973;DHT22;1496;51.404;7.232;2022-12-29T02:13:27;9.90;99.90
2973;DHT22;1496;51.404;7.232;2022-12-29T02:16:02;10.00;99.90
2973;DHT22;1496;51.404;7.232;2022-12-29T02:19:02;10.00;99.90
2973;DHT22;1496;51.404;7.232;2022-12-29T02:22:27;10.00;99.90
2973;DHT22;1496;51.404;7.232;2022-12-29T02:24:36;10.00;99.90
2973;DHT22;1496;51.404;7.232;2022-12-29T02:30:28;10.00;99.90
2973;DHT22;1496;51.404;7.232;2022-12-29T02:47:42;10.00;99.90
2973;DHT22;1496;51.404;7.232;2022-12-29T02:50:32;10.20;99.90
2973;DHT22;1496;51.404;7.232;2022-12-29T02:53:06;10.10;99.90
2973;DHT22;1496;51.404;7.232;2022-12-29T02:55:35;10.20;99.90
2973;DHT22;1496;51.404;7.232;2022-12-29T02:58:22;10.20;99.90
2973;DHT22;1496;51.404;7.232;2022-12-29T03:01:02;10.10;99.90
2973;DHT22;1496;51.404;7.232;2022-12-29T03:24:24;10.20;99.90
2973;DHT22;1496;51.404;7.232;2022-12-29T03:26:55;10.20;99.90
2973;DHT22;1496;51.404;7.232;2022-12-29T03:29:24;10.30;99.90
2973;DHT22;1496;51.404;7.232;2022-12-29T03:31:54;10.20;99.90
2973;DHT22;1496;51.404;7.232;2022-12-29T03:34:22;10.10;99.90
2973;DHT22;1496;51.404;7.232;2022-12-29T03:36:55;10.10;99.90
2973;DHT22;1496;51.404;7.232;2022-12-29T03:39:24;10.20;99.90
2973;DHT22;1496;51.404;7.232;2022-12-29T03:41:57;10.20;99.90
2973;DHT22;1496;51.404;7.232;2022-12-29T03:44:35;10.20;99.90
2973;DHT22;1496;51.404;7.232;2022-12-29T03:47:03;10.20;99.90
2973;DHT22;1496;51.404;7.232;2022-12-29T03:49:32;10.20;99.90
2973;DHT22;1496;51.404;7.232;2022-12-29T03:51:59;10.10;99.90
2973;DHT22;1496;51.404;7.232;2022-12-29T03:54:27;10.00;99.90
2973;DHT22;1496;51.404;7.232;2022-12-29T03:56:53;10.00;99.90
2973;DHT22;1496;51.404;7.232;2022-12-29T03:59:29;9.90;99.90
2973;DHT22;1496;51.404;7.232;2022-12-29T04:01:56;9.90;99.90
2973;DHT22;1496;51.404;7.232;2022-12-29T04:04:23;9.90;99.90
2973;DHT22;1496;51.404;7.232;2022-12-29T04:06:50;9.80;99.90
2973;DHT22;1496;51.404;7.232;2022-12-29T04:09:18;9.80;99.90
2973;DHT22;1496;51.404;7.232;2022-12-29T04:11:47;9.80;99.90
2973;DHT22;1496;51.404;7.232;2022-12-29T04:14:14;9.80;99.90
2973;DHT22;1496;51.404;7.232;2022-12-29T04:16:41;9.90;99.90
2973;DHT22;1496;51.404;7.232;2022-12-29T04:19:08;9.80;99.90
2973;DHT22;1496;51.404;7.232;2022-12-29T04:21:38;9.90;99.90
2973;DHT22;1496;51.404;7.232;2022-12-29T04:24:06;10.00;99.90
2973;DHT22;1496;51.404;7.232;2022-12-29T04:26:35;10.00;99.90
2973;DHT22;1496;51.404;7.232;2022-12-29T04:29:16;10.10;99.90
2973;DHT22;1496;51.404;7.232;2022-12-29T04:32:10;10.20;99.90
2973;DHT22;1496;51.404;7.232;2022-12-29T04:34:41;10.20;99.90
2973;DHT22;1496;51.404;7.232;2022-12-29T04:37:09;10.20;99.90
2973;DHT22;1496;51.404;7.232;2022-12-29T04:39:36;10.30;99.90
2973;DHT22;1496;51.404;7.232;2022-12-29T04:42:04;10.30;99.90
2973;DHT22;1496;51.404;7.232;2022-12-29T04:44:32;10.30;99.90
2973;DHT22;1496;51.404;7.232;2022-12-29T04:47:19;10.40;99.90
2973;DHT22;1496;51.404;7.232;2022-12-29T04:50:03;10.40;99.90
2973;DHT22;1496;51.404;7.232;2022-12-29T04:52:30;10.50;99.90
2973;DHT22;1496;51.404;7.232;2022-12-29T04:54:57;10.50;99.90
2973;DHT22;1496;51.404;7.232;2022-12-29T04:57:25;10.50;99.90
2973;DHT22;1496;51.404;7.232;2022-12-29T04:59:55;10.50;99.90
2973;DHT22;1496;51.404;7.232;2022-12-29T05:02:23;10.60;99.90
2973;DHT22;1496;51.404;7.232;2022-12-29T05:04:50;10.60;99.90
2973;DHT22;1496;51.404;7.232;2022-12-29T05:07:18;10.60;99.90
2973;DHT22;1496;51.404;7.232;2022-12-29T05:09:47;10.70;99.90
2973;DHT22;1496;51.404;7.232;2022-12-29T05:12:15;10.70;99.90
2973;DHT22;1496;51.404;7.232;2022-12-29T05:14:52;10.70;99.90
2973;DHT22;1496;51.404;7.232;2022-12-29T05:17:20;10.70;99.90
2973;DHT22;1496;51.404;7.232;2022-12-29T05:19:47;10.80;99.90
2973;DHT22;1496;51.404;7.232;2022-12-29T05:22:14;10.80;99.90
2973;DHT22;1496;51.404;7.232;2022-12-29T05:24:43;10.80;39.00
2973;DHT22;1496;51.404;7.232;2022-12-29T05:27:10;10.80;99.90
2973;DHT22;1496;51.404;7.232;2022-12-29T05:29:57;10.80;96.90
2973;DHT22;1496;51.404;7.232;2022-12-29T05:32:25;10.80;99.90
2973;DHT22;1496;51.404;7.232;2022-12-29T05:34:53;10.80;99.90
2973;DHT22;1496;51.404;7.232;2022-12-29T05:37:20;10.80;8.90
2973;DHT22;1496;51.404;7.232;2022-12-29T05:39:47;10.90;1.00
2973;DHT22;1496;51.404;7.232;2022-12-29T05:42:14;11.00;1.00
2973;DHT22;1496;51.404;7.232;2022-12-29T05:44:52;10.90;1.00
2973;DHT22;1496;51.404;7.232;2022-12-29T05:47:31;11.00;1.00
2973;DHT22;1496;51.404;7.232;2022-12-29T05:50:11;11.00;1.00
2973;DHT22;1496;51.404;7.232;2022-12-29T05:52:56;11.00;1.00
2973;DHT22;1496;51.404;7.232;2022-12-29T05:55:23;11.10;1.00
2973;DHT22;1496;51.404;7.232;2022-12-29T05:57:52;10.90;1.00
2973;DHT22;1496;51.404;7.232;2022-12-29T06:00:19;10.80;1.00
2973;DHT22;1496;51.404;7.232;2022-12-29T06:02:49;10.90;99.90
2973;DHT22;1496;51.404;7.232;2022-12-29T06:05:17;10.90;99.90
2973;DHT22;1496;51.404;7.232;2022-12-29T06:07:44;11.00;99.90
2973;DHT22;1496;51.404;7.232;2022-12-29T06:10:13;10.90;99.90
2973;DHT22;1496;51.404;7.232;2022-12-29T06:13:02;10.80;99.90
2973;DHT22;1496;51.404;7.232;2022-12-29T06:15:35;10.80;99.90
2973;DHT22;1496;51.404;7.232;2022-12-29T06:18:04;10.90;99.90
2973;DHT22;1496;51.404;7.232;2022-12-29T06:20:31;11.00;99.90
2973;DHT22;1496;51.404;7.232;2022-12-29T06:23:00;11.00;99.90
2973;DHT22;1496;51.404;7.232;2022-12-29T06:25:27;11.00;99.90
2973;DHT22;1496;51.404;7.232;2022-12-29T06:27:55;10.90;99.90
2973;DHT22;1496;51.404;7.232;2022-12-29T06:30:21;10.90;99.90
2973;DHT22;1496;51.404;7.232;2022-12-29T06:32:49;10.90;99.90
2973;DHT22;1496;51.404;7.232;2022-12-29T06:35:19;10.90;99.90
2973;DHT22;1496;51.404;7.232;2022-12-29T06:37:50;10.90;99.90
2973;DHT22;1496;51.404;7.232;2022-12-29T06:40:17;10.90;99.90
2973;DHT22;1496;51.404;7.232;2022-12-29T06:43:04;11.00;99.90
2973;DHT22;1496;51.404;7.232;2022-12-29T06:45:45;11.00;99.90
2973;DHT22;1496;51.404;7.232;2022-12-29T06:48:13;10.90;99.90
2973;DHT22;1496;51.404;7.232;2022-12-29T06:50:40;10.90;99.90
2973;DHT22;1496;51.404;7.232;2022-12-29T06:53:06;10.90;99.90
2973;DHT22;1496;51.404;7.232;2022-12-29T06:55:33;10.80;99.90
2973;DHT22;1496;51.404;7.232;2022-12-29T06:58:00;10.80;99.90
2973;DHT22;1496;51.404;7.232;2022-12-29T07:00:27;10.80;99.90
2973;DHT22;1496;51.404;7.232;2022-12-29T07:02:55;10.80;99.90
2973;DHT22;1496;51.404;7.232;2022-12-29T07:05:25;10.80;99.90
2973;DHT22;1496;51.404;7.232;2022-12-29T07:07:55;10.90;99.90
2973;DHT22;1496;51.404;7.232;2022-12-29T07:10:22;10.80;99.90
2973;DHT22;1496;51.404;7.232;2022-12-29T07:12:50;10.80;99.90
2973;DHT22;1496;51.404;7.232;2022-12-29T07:15:17;10.80;99.90
2973;DHT22;1496;51.404;7.232;2022-12-29T07:17:44;10.80;99.90
2973;DHT22;1496;51.404;7.232;2022-12-29T07:20:11;10.70;99.90
2973;DHT22;1496;51.404;7.232;2022-12-29T07:22:37;10.70;99.90
2973;DHT22;1496;51.404;7.232;2022-12-29T07:25:05;10.60;99.90
2973;DHT22;1496;51.404;7.232;2022-12-29T07:27:32;10.60;99.90
2973;DHT22;1496;51.404;7.232;2022-12-29T07:29:59;10.60;99.90
2973;DHT22;1496;51.404;7.232;2022-12-29T07:32:27;10.60;99.90
2973;DHT22;1496;51.404;7.232;2022-12-29T07:34:54;10.70;99.90
2973;DHT22;1496;51.404;7.232;2022-12-29T07:37:21;10.70;99.90
2973;DHT22;1496;51.404;7.232;2022-12-29T07:39:48;10.60;99.90
2973;DHT22;1496;51.404;7.232;2022-12-29T07:42:14;10.60;99.90
2973;DHT22;1496;51.404;7.232;2022-12-29T07:44:43;10.60;99.90
2973;DHT22;1496;51.404;7.232;2022-12-29T07:47:21;10.50;99.90
2973;DHT22;1496;51.404;7.232;2022-12-29T07:49:50;10.50;99.90
2973;DHT22;1496;51.404;7.232;2022-12-29T07:52:17;10.50;99.90
2973;DHT22;1496;51.404;7.232;2022-12-29T07:54:43;10.60;99.90
2973;DHT22;1496;51.404;7.232;2022-12-29T07:57:10;10.50;99.90
2973;DHT22;1496;51.404;7.232;2022-12-29T07:59:36;10.50;99.90
2973;DHT22;1496;51.404;7.232;2022-12-29T08:02:03;10.50;99.90
2973;DHT22;1496;51.404;7.232;2022-12-29T08:04:29;10.60;99.90
2973;DHT22;1496;51.404;7.232;2022-12-29T08:06:56;10.60;99.90
2973;DHT22;1496;51.404;7.232;2022-12-29T08:09:22;10.50;99.90
2973;DHT22;1496;51.404;7.232;2022-12-29T08:11:49;10.60;99.90
2973;DHT22;1496;51.404;7.232;2022-12-29T08:14:15;10.60;99.90
2973;DHT22;1496;51.404;7.232;2022-12-29T08:16:43;10.50;99.90
2973;DHT22;1496;51.404;7.232;2022-12-29T08:19:11;10.60;99.90
2973;DHT22;1496;51.404;7.232;2022-12-29T08:21:37;10.60;99.90
2973;DHT22;1496;51.404;7.232;2022-12-29T08:24:05;10.60;99.90
2973;DHT22;1496;51.404;7.232;2022-12-29T08:26:32;10.60;99.90
2973;DHT22;1496;51.404;7.232;2022-12-29T08:28:58;10.50;99.90
2973;DHT22;1496;51.404;7.232;2022-12-29T08:31:25;10.50;99.90
2973;DHT22;1496;51.404;7.232;2022-12-29T08:33:52;10.50;99.90
2973;DHT22;1496;51.404;7.232;2022-12-29T08:36:19;10.50;99.90
2973;DHT22;1496;51.404;7.232;2022-12-29T08:38:46;10.50;99.90
2973;DHT22;1496;51.404;7.232;2022-12-29T08:41:13;10.50;99.90
2973;DHT22;1496;51.404;7.232;2022-12-29T08:43:38;10.60;99.90
2973;DHT22;1496;51.404;7.232;2022-12-29T08:46:05;10.50;99.90
2973;DHT22;1496;51.404;7.232;2022-12-29T08:48:32;10.50;99.90
2973;DHT22;1496;51.404;7.232;2022-12-29T08:50:59;10.50;99.90
2973;DHT22;1496;51.404;7.232;2022-12-29T08:53:26;10.50;99.90
2973;DHT22;1496;51.404;7.232;2022-12-29T08:55:58;10.50;99.90
2973;DHT22;1496;51.404;7.232;2022-12-29T08:58:26;10.50;99.90
2973;DHT22;1496;51.404;7.232;2022-12-29T09:00:55;10.40;99.90
2973;DHT22;1496;51.404;7.232;2022-12-29T09:03:22;10.20;99.90
2973;DHT22;1496;51.404;7.232;2022-12-29T09:05:54;10.00;99.90
2973;DHT22;1496;51.404;7.232;2022-12-29T09:08:22;9.90;99.90
2973;DHT22;1496;51.404;7.232;2022-12-29T09:10:51;9.80;99.90
2973;DHT22;1496;51.404;7.232;2022-12-29T09:13:17;9.80;99.90
2973;DHT22;1496;51.404;7.232;2022-12-29T09:15:44;9.70;99.90
2973;DHT22;1496;51.404;7.232;2022-12-29T09:18:12;9.80;99.90
2973;DHT22;1496;51.404;7.232;2022-12-29T09:20:40;9.80;99.90
2973;DHT22;1496;51.404;7.232;2022-12-29T09:23:06;9.90;99.90
2973;DHT22;1496;51.404;7.232;2022-12-29T09:25:34;9.90;99.90
2973;DHT22;1496;51.404;7.232;2022-12-29T09:28:00;9.90;99.90
2973;DHT22;1496;51.404;7.232;2022-12-29T09:30:33;9.90;99.90
2973;DHT22;1496;51.404;7.232;2022-12-29T09:33:02;9.90;99.90
2973;DHT22;1496;51.404;7.232;2022-12-29T09:35:29;9.90;99.90
2973;DHT22;1496;51.404;7.232;2022-12-29T09:37:55;10.00;99.90
2973;DHT22;1496;51.404;7.232;2022-12-29T09:40:31;9.90;99.90
2973;DHT22;1496;51.404;7.232;2022-12-29T09:45:57;10.00;99.90
2973;DHT22;1496;51.404;7.232;2022-12-29T09:48:34;10.10;99.90
2973;DHT22;1496;51.404;7.232;2022-12-29T09:51:07;10.10;99.90
2973;DHT22;1496;51.404;7.232;2022-12-29T09:53:49;10.10;99.90
2973;DHT22;1496;51.404;7.232;2022-12-29T09:56:21;10.10;99.90
2973;DHT22;1496;51.404;7.232;2022-12-29T09:59:04;10.10;99.90
2973;DHT22;1496;51.404;7.232;2022-12-29T10:01:40;10.10;99.90
2973;DHT22;1496;51.404;7.232;2022-12-29T10:04:09;10.10;99.90
2973;DHT22;1496;51.404;7.232;2022-12-29T10:06:42;10.20;99.90
2973;DHT22;1496;51.404;7.232;2022-12-29T10:09:15;10.20;99.90
2973;DHT22;1496;51.404;7.232;2022-12-29T10:19:53;10.40;99.90
2973;DHT22;1496;51.404;7.232;2022-12-29T10:22:45;10.40;99.90
2973;DHT22;1496;51.404;7.232;2022-12-29T10:25:20;10.40;99.90
2973;DHT22;1496;51.404;7.232;2022-12-29T10:27:48;10.40;99.90
2973;DHT22;1496;51.404;7.232;2022-12-29T10:30:16;10.50;99.90
2973;DHT22;1496;51.404;7.232;2022-12-29T10:32:51;10.50;99.90
2973;DHT22;1496;51.404;7.232;2022-12-29T10:35:22;10.50;99.90
2973;DHT22;1496;51.404;7.232;2022-12-29T10:38:02;10.60;99.90
2973;DHT22;1496;51.404;7.232;2022-12-29T10:43:30;10.60;99.90
2973;DHT22;1496;51.404;7.232;2022-12-29T10:46:10;10.70;99.90
2973;DHT22;1496;51.404;7.232;2022-12-29T10:48:39;10.70;99.90
2973;DHT22;1496;51.404;7.232;2022-12-29T10:51:08;10.70;99.90
2973;DHT22;1496;51.404;7.232;2022-12-29T10:53:46;10.70;99.90
2973;DHT22;1496;51.404;7.232;2022-12-29T10:59:24;10.70;99.90
2973;DHT22;1496;51.404;7.232;2022-12-29T11:02:06;10.60;99.90
2973;DHT22;1496;51.404;7.232;2022-12-29T11:07:18;10.60;99.90
2973;DHT22;1496;51.404;7.232;2022-12-29T11:09:45;10.60;99.90
2973;DHT22;1496;51.404;7.232;2022-12-29T11:12:29;10.60;99.90
2973;DHT22;1496;51.404;7.232;2022-12-29T11:15:15;10.60;99.90
2973;DHT22;1496;51.404;7.232;2022-12-29T11:17:50;10.70;99.90
2973;DHT22;1496;51.404;7.232;2022-12-29T11:22:55;10.60;99.90
2973;DHT22;1496;51.404;7.232;2022-12-29T11:25:22;10.60;99.90
2973;DHT22;1496;51.404;7.232;2022-12-29T11:28:14;10.60;99.90
2973;DHT22;1496;51.404;7.232;2022-12-29T11:30:41;10.50;99.90
2973;DHT22;1496;51.404;7.232;2022-12-29T11:33:09;10.60;99.90
2973;DHT22;1496;51.404;7.232;2022-12-29T11:35:36;10.50;99.90
2973;DHT22;1496;51.404;7.232;2022-12-29T11:38:20;10.50;99.90
2973;DHT22;1496;51.404;7.232;2022-12-29T11:40:48;10.50;99.90
2973;DHT22;1496;51.404;7.232;2022-12-29T11:43:41;10.50;99.90
2973;DHT22;1496;51.404;7.232;2022-12-29T11:46:17;10.50;99.90
2973;DHT22;1496;51.404;7.232;2022-12-29T11:48:45;10.40;99.90
2973;DHT22;1496;51.404;7.232;2022-12-29T11:51:13;10.50;99.90
2973;DHT22;1496;51.404;7.232;2022-12-29T11:53:52;10.50;99.90
2973;DHT22;1496;51.404;7.232;2022-12-29T11:56:51;10.40;99.90
2973;DHT22;1496;51.404;7.232;2022-12-29T12:02:00;10.50;99.90
2973;DHT22;1496;51.404;7.232;2022-12-29T12:04:34;10.50;99.90
2973;DHT22;1496;51.404;7.232;2022-12-29T12:09:57;10.60;99.90
2973;DHT22;1496;51.404;7.232;2022-12-29T12:15:27;10.50;99.90
2973;DHT22;1496;51.404;7.232;2022-12-29T12:20:48;10.40;99.90
2973;DHT22;1496;51.404;7.232;2022-12-29T12:23:43;10.50;99.90
2973;DHT22;1496;51.404;7.232;2022-12-29T12:26:12;10.40;99.90
2973;DHT22;1496;51.404;7.232;2022-12-29T12:28:49;10.50;99.90
2973;DHT22;1496;51.404;7.232;2022-12-29T12:31:47;10.50;99.90
2973;DHT22;1496;51.404;7.232;2022-12-29T12:34:37;10.40;99.90
2973;DHT22;1496;51.404;7.232;2022-12-29T12:40:13;10.40;99.90
2973;DHT22;1496;51.404;7.232;2022-12-29T12:43:06;10.40;99.90
2973;DHT22;1496;51.404;7.232;2022-12-29T12:59:30;10.30;99.90
2973;DHT22;1496;51.404;7.232;2022-12-29T13:02:15;10.30;99.90
2973;DHT22;1496;51.404;7.232;2022-12-29T13:08:24;10.30;99.90
2973;DHT22;1496;51.404;7.232;2022-12-29T13:22:05;10.20;99.90
2973;DHT22;1496;51.404;7.232;2022-12-29T13:30:20;10.20;99.90
2973;DHT22;1496;51.404;7.232;2022-12-29T13:35:47;10.20;99.90
2973;DHT22;1496;51.404;7.232;2022-12-29T13:38:32;10.20;99.90
2973;DHT22;1496;51.404;7.232;2022-12-29T13:41:08;10.20;99.90
2973;DHT22;1496;51.404;7.232;2022-12-29T13:43:39;10.10;99.90
2973;DHT22;1496;51.404;7.232;2022-12-29T13:46:18;10.20;99.90
2973;DHT22;1496;51.404;7.232;2022-12-29T13:49:21;10.20;99.90
2973;DHT22;1496;51.404;7.232;2022-12-29T13:51:53;10.10;99.90
2973;DHT22;1496;51.404;7.232;2022-12-29T13:54:48;10.10;99.90
2973;DHT22;1496;51.404;7.232;2022-12-29T14:00:12;10.20;99.90
2973;DHT22;1496;51.404;7.232;2022-12-29T14:07:56;10.10;99.90
2973;DHT22;1496;51.404;7.232;2022-12-29T14:10:36;10.10;99.90
2973;DHT22;1496;51.404;7.232;2022-12-29T14:15:40;10.10;99.90
2973;DHT22;1496;51.404;7.232;2022-12-29T14:23:43;10.10;99.90
2973;DHT22;1496;51.404;7.232;2022-12-29T14:26:49;10.00;99.90
2973;DHT22;1496;51.404;7.232;2022-12-29T14:31:54;10.00;99.90
2973;DHT22;1496;51.404;7.232;2022-12-29T14:39:41;10.10;99.90
2973;DHT22;1496;51.404;7.232;2022-12-29T14:47:36;10.00;99.90
2973;DHT22;1496;51.404;7.232;2022-12-29T14:55:45;10.00;99.90
2973;DHT22;1496;51.404;7.232;2022-12-29T14:58:27;10.00;99.90
2973;DHT22;1496;51.404;7.232;2022-12-29T15:00:56;10.00;99.90
2973;DHT22;1496;51.404;7.232;2022-12-29T15:03:31;10.00;99.90
2973;DHT22;1496;51.404;7.232;2022-12-29T15:06:06;10.00;99.90
2973;DHT22;1496;51.404;7.232;2022-12-29T15:08:54;10.00;99.90
2973;DHT22;1496;51.404;7.232;2022-12-29T15:11:27;10.00;99.90
2973;DHT22;1496;51.404;7.232;2022-12-29T15:13:56;9.90;99.90
2973;DHT22;1496;51.404;7.232;2022-12-29T15:16:33;9.90;99.90
2973;DHT22;1496;51.404;7.232;2022-12-29T15:19:03;9.90;99.90
2973;DHT22;1496;51.404;7.232;2022-12-29T15:21:36;9.80;99.90
2973;DHT22;1496;51.404;7.232;2022-12-29T15:24:03;9.90;99.90
2973;DHT22;1496;51.404;7.232;2022-12-29T15:26:39;9.90;99.90
2973;DHT22;1496;51.404;7.232;2022-12-29T15:29:34;9.90;99.90
2973;DHT22;1496;51.404;7.232;2022-12-29T15:34:43;9.80;99.90
2973;DHT22;1496;51.404;7.232;2022-12-29T15:37:24;9.80;99.90
2973;DHT22;1496;51.404;7.232;2022-12-29T15:39:55;9.80;99.90
2973;DHT22;1496;51.404;7.232;2022-12-29T15:42:29;9.80;99.90
2973;DHT22;1496;51.404;7.232;2022-12-29T15:44:57;9.80;99.90
2973;DHT22;1496;51.404;7.232;2022-12-29T15:47:26;9.80;99.90
2973;DHT22;1496;51.404;7.232;2022-12-29T15:50:34;9.80;99.90
2973;DHT22;1496;51.404;7.232;2022-12-29T15:53:02;9.70;99.90
2973;DHT22;1496;51.404;7.232;2022-12-29T15:55:36;9.70;99.90
2973;DHT22;1496;51.404;7.232;2022-12-29T15:58:05;9.70;99.90
2973;DHT22;1496;51.404;7.232;2022-12-29T16:00:32;9.70;99.90
2973;DHT22;1496;51.404;7.232;2022-12-29T16:03:05;9.70;99.90
2973;DHT22;1496;51.404;7.232;2022-12-29T16:05:38;9.60;99.90
2973;DHT22;1496;51.404;7.232;2022-12-29T16:08:31;9.60;99.90
2973;DHT22;1496;51.404;7.232;2022-12-29T16:11:15;9.60;99.90
2973;DHT22;1496;51.404;7.232;2022-12-29T16:13:43;9.60;99.90
2973;DHT22;1496;51.404;7.232;2022-12-29T16:16:20;9.70;99.90
2973;DHT22;1496;51.404;7.232;2022-12-29T16:18:50;9.70;99.90
2973;DHT22;1496;51.404;7.232;2022-12-29T16:21:36;9.70;99.90
2973;DHT22;1496;51.404;7.232;2022-12-29T16:24:29;9.60;99.90
2973;DHT22;1496;51.404;7.232;2022-12-29T16:30:05;9.50;99.90
2973;DHT22;1496;51.404;7.232;2022-12-29T16:32:32;9.50;99.90
2973;DHT22;1496;51.404;7.232;2022-12-29T16:35:16;9.40;99.90
2973;DHT22;1496;51.404;7.232;2022-12-29T16:37:44;9.40;99.90
2973;DHT22;1496;51.404;7.232;2022-12-29T16:40:30;9.30;99.90
2973;DHT22;1496;51.404;7.232;2022-12-29T16:43:02;9.40;99.90
2973;DHT22;1496;51.404;7.232;2022-12-29T16:48:36;9.40;99.90
2973;DHT22;1496;51.404;7.232;2022-12-29T16:51:16;9.40;99.90
2973;DHT22;1496;51.404;7.232;2022-12-29T16:53:50;9.40;99.90
2973;DHT22;1496;51.404;7.232;2022-12-29T16:56:42;9.40;99.90
2973;DHT22;1496;51.404;7.232;2022-12-29T16:59:34;9.40;99.90
2973;DHT22;1496;51.404;7.232;2022-12-29T17:02:12;9.30;99.90
2973;DHT22;1496;51.404;7.232;2022-12-29T17:04:40;9.40;99.90
2973;DHT22;1496;51.404;7.232;2022-12-29T17:07:19;9.40;99.90
2973;DHT22;1496;51.404;7.232;2022-12-29T17:09:46;9.40;99.90
2973;DHT22;1496;51.404;7.232;2022-12-29T17:12:23;9.30;99.90
2973;DHT22;1496;51.404;7.232;2022-12-29T17:14:59;9.40;99.90
2973;DHT22;1496;51.404;7.232;2022-12-29T17:17:36;9.40;99.90
2973;DHT22;1496;51.404;7.232;2022-12-29T17:20:19;9.40;99.90
2973;DHT22;1496;51.404;7.232;2022-12-29T17:22:47;9.40;99.90
2973;DHT22;1496;51.404;7.232;2022-12-29T17:25:18;9.40;99.90
2973;DHT22;1496;51.404;7.232;2022-12-29T17:28:01;9.40;99.90
2973;DHT22;1496;51.404;7.232;2022-12-29T17:30:29;9.40;99.90
2973;DHT22;1496;51.404;7.232;2022-12-29T17:33:06;9.30;99.90
2973;DHT22;1496;51.404;7.232;2022-12-29T17:35:36;9.30;99.90
2973;DHT22;1496;51.404;7.232;2022-12-29T17:38:19;9.30;99.90
2973;DHT22;1496;51.404;7.232;2022-12-29T17:40:46;9.30;99.90
2973;DHT22;1496;51.404;7.232;2022-12-29T17:43:15;9.30;99.90
2973;DHT22;1496;51.404;7.232;2022-12-29T17:45:51;9.20;99.90
2973;DHT22;1496;51.404;7.232;2022-12-29T17:48:19;9.30;99.90
2973;DHT22;1496;51.404;7.232;2022-12-29T17:50:47;9.20;99.90
2973;DHT22;1496;51.404;7.232;2022-12-29T17:53:18;9.10;99.90
2973;DHT22;1496;51.404;7.232;2022-12-29T17:55:46;9.10;99.90
2973;DHT22;1496;51.404;7.232;2022-12-29T17:58:23;9.10;99.90
2973;DHT22;1496;51.404;7.232;2022-12-29T18:00:54;9.00;99.90
2973;DHT22;1496;51.404;7.232;2022-12-29T18:03:33;8.90;99.90
2973;DHT22;1496;51.404;7.232;2022-12-29T18:06:00;8.80;99.90
2973;DHT22;1496;51.404;7.232;2022-12-29T18:08:27;8.70;99.90
2973;DHT22;1496;51.404;7.232;2022-12-29T18:10:55;8.60;99.90
2973;DHT22;1496;51.404;7.232;2022-12-29T18:13:24;8.30;99.90
2973;DHT22;1496;51.404;7.232;2022-12-29T18:15:51;8.10;99.90
2973;DHT22;1496;51.404;7.232;2022-12-29T18:18:24;7.90;1.00
2973;DHT22;1496;51.404;7.232;2022-12-29T18:20:54;7.80;1.00
2973;DHT22;1496;51.404;7.232;2022-12-29T18:23:27;7.80;1.00
2973;DHT22;1496;51.404;7.232;2022-12-29T18:26:00;7.70;1.00
2973;DHT22;1496;51.404;7.232;2022-12-29T18:28:29;7.60;1.00
2973;DHT22;1496;51.404;7.232;2022-12-29T18:30:57;7.50;1.00
2973;DHT22;1496;51.404;7.232;2022-12-29T18:33:25;7.50;1.00
2973;DHT22;1496;51.404;7.232;2022-12-29T18:36:04;7.40;1.00
2973;DHT22;1496;51.404;7.232;2022-12-29T18:38:31;7.40;1.00
2973;DHT22;1496;51.404;7.232;2022-12-29T18:40:59;7.40;1.00
2973;DHT22;1496;51.404;7.232;2022-12-29T18:43:26;7.30;1.00
2973;DHT22;1496;51.404;7.232;2022-12-29T18:45:53;7.30;1.00
2973;DHT22;1496;51.404;7.232;2022-12-29T18:48:21;7.30;1.00
2973;DHT22;1496;51.404;7.232;2022-12-29T18:50:48;7.30;1.00
2973;DHT22;1496;51.404;7.232;2022-12-29T18:53:19;7.30;1.00
2973;DHT22;1496;51.404;7.232;2022-12-29T18:55:46;7.30;1.00
2973;DHT22;1496;51.404;7.232;2022-12-29T18:58:12;7.30;1.00
2973;DHT22;1496;51.404;7.232;2022-12-29T19:00:39;7.30;99.90
2973;DHT22;1496;51.404;7.232;2022-12-29T19:03:06;7.30;99.90
2973;DHT22;1496;51.404;7.232;2022-12-29T19:05:37;7.40;99.90
2973;DHT22;1496;51.404;7.232;2022-12-29T19:08:05;7.50;99.90
2973;DHT22;1496;51.404;7.232;2022-12-29T19:10:32;7.50;99.90
2973;DHT22;1496;51.404;7.232;2022-12-29T19:13:00;7.50;99.90
2973;DHT22;1496;51.404;7.232;2022-12-29T19:15:30;7.50;99.90
2973;DHT22;1496;51.404;7.232;2022-12-29T19:17:59;7.50;99.90
2973;DHT22;1496;51.404;7.232;2022-12-29T19:20:39;7.50;99.90
2973;DHT22;1496;51.404;7.232;2022-12-29T19:23:12;7.50;99.90
2973;DHT22;1496;51.404;7.232;2022-12-29T19:25:39;7.40;99.90